sensor_id;sensor_type;location;lat;lon;timestamp;P1;durP1;ratioP1;P2;durP2;ratioP2
26612;SDS011;14248;57.652;11.908;2022-11-24T00:00:34;14.43;;;8.25;;
26612;SDS011;14248;57.652;11.908;2022-11-24T00:03:00;12.70;;;7.68;;
26612;SDS011;14248;57.652;11.908;2022-11-24T00:05:29;13.43;;;7.78;;
26612;SDS011;14248;57.652;11.908;2022-11-24T00:07:55;12.23;;;7.80;;
26612;SDS011;14248;57.652;11.908;2022-11-24T00:10:27;12.52;;;7.50;;
26612;SDS011;14248;57.652;11.908;2022-11-24T00:12:53;11.98;;;7.80;;
26612;SDS011;14248;57.652;11.908;2022-11-24T00:15:19;14.02;;;7.85;;
26612;SDS011;14248;57.652;11.908;2022-11-24T00:17:46;13.23;;;7.45;;
26612;SDS011;14248;57.652;11.908;2022-11-24T00:20:12;10.38;;;7.13;;
26612;SDS011;14248;57.652;11.908;2022-11-24T00:22:38;10.55;;;6.88;;
26612;SDS011;14248;57.652;11.908;2022-11-24T00:25:04;12.35;;;6.90;;
26612;SDS011;14248;57.652;11.908;2022-11-24T00:27:30;12.10;;;7.13;;
26612;SDS011;14248;57.652;11.908;2022-11-24T00:29:56;11.48;;;7.20;;
26612;SDS011;14248;57.652;11.908;2022-11-24T00:32:24;10.70;;;7.65;;
26612;SDS011;14248;57.652;11.908;2022-11-24T00:34:52;12.35;;;7.60;;
26612;SDS011;14248;57.652;11.908;2022-11-24T00:37:18;13.45;;;7.82;;
26612;SDS011;14248;57.652;11.908;2022-11-24T00:39:44;11.77;;;7.55;;
26612;SDS011;14248;57.652;11.908;2022-11-24T00:42:10;11.65;;;7.78;;
26612;SDS011;14248;57.652;11.908;2022-11-24T00:44:39;11.35;;;7.10;;
26612;SDS011;14248;57.652;11.908;2022-11-24T00:47:05;10.43;;;7.07;;
26612;SDS011;14248;57.652;11.908;2022-11-24T00:49:31;11.10;;;6.97;;
26612;SDS011;14248;57.652;11.908;2022-11-24T00:51:57;15.23;;;7.97;;
26612;SDS011;14248;57.652;11.908;2022-11-24T00:54:23;12.43;;;6.93;;
26612;SDS011;14248;57.652;11.908;2022-11-24T00:56:50;12.52;;;7.75;;
26612;SDS011;14248;57.652;11.908;2022-11-24T00:59:16;12.73;;;7.60;;
26612;SDS011;14248;57.652;11.908;2022-11-24T01:01:42;13.18;;;7.93;;
26612;SDS011;14248;57.652;11.908;2022-11-24T01:04:09;12.43;;;7.18;;
26612;SDS011;14248;57.652;11.908;2022-11-24T01:06:36;13.75;;;7.60;;
26612;SDS011;14248;57.652;11.908;2022-11-24T01:09:02;11.23;;;6.95;;
26612;SDS011;14248;57.652;11.908;2022-11-24T01:11:29;12.05;;;6.88;;
26612;SDS011;14248;57.652;11.908;2022-11-24T01:14:14;10.20;;;6.97;;
26612;SDS011;14248;57.652;11.908;2022-11-24T01:16:40;11.10;;;7.03;;
26612;SDS011;14248;57.652;11.908;2022-11-24T01:19:06;10.80;;;7.25;;
26612;SDS011;14248;57.652;11.908;2022-11-24T01:21:32;12.95;;;7.55;;
26612;SDS011;14248;57.652;11.908;2022-11-24T01:23:58;10.63;;;7.63;;
26612;SDS011;14248;57.652;11.908;2022-11-24T01:26:24;13.85;;;7.47;;
26612;SDS011;14248;57.652;11.908;2022-11-24T01:28:51;14.77;;;8.00;;
26612;SDS011;14248;57.652;11.908;2022-11-24T01:31:18;11.73;;;7.15;;
26612;SDS011;14248;57.652;11.908;2022-11-24T01:33:44;12.38;;;7.30;;
26612;SDS011;14248;57.652;11.908;2022-11-24T01:36:10;12.65;;;7.70;;
26612;SDS011;14248;57.652;11.908;2022-11-24T01:38:36;12.63;;;7.80;;
26612;SDS011;14248;57.652;11.908;2022-11-24T01:41:21;14.05;;;8.20;;
26612;SDS011;14248;57.652;11.908;2022-11-24T01:43:48;12.82;;;7.78;;
26612;SDS011;14248;57.652;11.908;2022-11-24T01:51:25;13.13;;;7.40;;
26612;SDS011;14248;57.652;11.908;2022-11-24T01:54:00;12.80;;;7.60;;
26612;SDS011;14248;57.652;11.908;2022-11-24T01:56:27;13.07;;;7.70;;
26612;SDS011;14248;57.652;11.908;2022-11-24T01:58:55;10.55;;;7.20;;
26612;SDS011;14248;57.652;11.908;2022-11-24T02:01:22;12.13;;;7.28;;
26612;SDS011;14248;57.652;11.908;2022-11-24T02:03:49;13.52;;;7.60;;
26612;SDS011;14248;57.652;11.908;2022-11-24T02:06:20;13.98;;;7.45;;
26612;SDS011;14248;57.652;11.908;2022-11-24T02:11:16;15.27;;;7.72;;
26612;SDS011;14248;57.652;11.908;2022-11-24T02:13:43;13.90;;;8.00;;
26612;SDS011;14248;57.652;11.908;2022-11-24T02:16:10;15.27;;;8.93;;
26612;SDS011;14248;57.652;11.908;2022-11-24T02:18:37;13.13;;;8.20;;
26612;SDS011;14248;57.652;11.908;2022-11-24T02:21:04;12.88;;;7.75;;
26612;SDS011;14248;57.652;11.908;2022-11-24T02:23:38;13.90;;;8.55;;
26612;SDS011;14248;57.652;11.908;2022-11-24T02:28:41;14.70;;;8.40;;
26612;SDS011;14248;57.652;11.908;2022-11-24T02:31:07;13.05;;;7.80;;
26612;SDS011;14248;57.652;11.908;2022-11-24T02:33:33;15.40;;;9.05;;
26612;SDS011;14248;57.652;11.908;2022-11-24T02:36:00;13.70;;;8.18;;
26612;SDS011;14248;57.652;11.908;2022-11-24T02:38:30;14.82;;;8.50;;
26612;SDS011;14248;57.652;11.908;2022-11-24T02:40:56;14.63;;;8.80;;
26612;SDS011;14248;57.652;11.908;2022-11-24T02:43:25;14.80;;;8.93;;
26612;SDS011;14248;57.652;11.908;2022-11-24T02:45:54;13.45;;;7.97;;
26612;SDS011;14248;57.652;11.908;2022-11-24T02:48:21;14.40;;;8.27;;
26612;SDS011;14248;57.652;11.908;2022-11-24T02:50:47;15.02;;;8.80;;
26612;SDS011;14248;57.652;11.908;2022-11-24T02:53:13;14.27;;;8.50;;
26612;SDS011;14248;57.652;11.908;2022-11-24T02:55:40;15.80;;;9.43;;
26612;SDS011;14248;57.652;11.908;2022-11-24T02:58:06;15.05;;;8.85;;
26612;SDS011;14248;57.652;11.908;2022-11-24T03:00:32;14.13;;;8.65;;
26612;SDS011;14248;57.652;11.908;2022-11-24T03:02:58;16.48;;;9.48;;
26612;SDS011;14248;57.652;11.908;2022-11-24T03:05:24;14.98;;;8.95;;
26612;SDS011;14248;57.652;11.908;2022-11-24T03:07:50;15.82;;;9.02;;
26612;SDS011;14248;57.652;11.908;2022-11-24T03:10:16;14.65;;;8.95;;
26612;SDS011;14248;57.652;11.908;2022-11-24T03:12:42;14.98;;;8.50;;
26612;SDS011;14248;57.652;11.908;2022-11-24T03:15:09;16.13;;;9.52;;
26612;SDS011;14248;57.652;11.908;2022-11-24T03:17:35;17.15;;;9.55;;
26612;SDS011;14248;57.652;11.908;2022-11-24T03:20:01;17.08;;;8.73;;
26612;SDS011;14248;57.652;11.908;2022-11-24T03:22:27;16.10;;;9.98;;
26612;SDS011;14248;57.652;11.908;2022-11-24T03:24:54;17.60;;;9.80;;
26612;SDS011;14248;57.652;11.908;2022-11-24T03:27:20;15.98;;;9.38;;
26612;SDS011;14248;57.652;11.908;2022-11-24T03:29:46;15.57;;;9.00;;
26612;SDS011;14248;57.652;11.908;2022-11-24T03:32:13;15.30;;;9.60;;
26612;SDS011;14248;57.652;11.908;2022-11-24T03:34:39;15.30;;;8.95;;
26612;SDS011;14248;57.652;11.908;2022-11-24T03:37:05;15.95;;;9.77;;
26612;SDS011;14248;57.652;11.908;2022-11-24T03:39:31;16.50;;;9.52;;
26612;SDS011;14248;57.652;11.908;2022-11-24T03:41:57;17.42;;;9.82;;
26612;SDS011;14248;57.652;11.908;2022-11-24T03:44:23;18.38;;;10.32;;
26612;SDS011;14248;57.652;11.908;2022-11-24T03:46:50;15.60;;;9.10;;
26612;SDS011;14248;57.652;11.908;2022-11-24T03:49:16;18.00;;;9.90;;
26612;SDS011;14248;57.652;11.908;2022-11-24T03:51:42;16.92;;;9.85;;
26612;SDS011;14248;57.652;11.908;2022-11-24T03:54:10;18.88;;;10.65;;
26612;SDS011;14248;57.652;11.908;2022-11-24T03:56:37;17.30;;;9.57;;
26612;SDS011;14248;57.652;11.908;2022-11-24T03:59:03;18.92;;;9.93;;
26612;SDS011;14248;57.652;11.908;2022-11-24T04:01:30;18.05;;;10.13;;
26612;SDS011;14248;57.652;11.908;2022-11-24T04:03:57;15.55;;;9.63;;
26612;SDS011;14248;57.652;11.908;2022-11-24T04:06:24;17.13;;;10.05;;
26612;SDS011;14248;57.652;11.908;2022-11-24T04:08:50;15.65;;;9.30;;
26612;SDS011;14248;57.652;11.908;2022-11-24T04:11:17;16.05;;;9.60;;
26612;SDS011;14248;57.652;11.908;2022-11-24T04:14:02;17.75;;;10.60;;
26612;SDS011;14248;57.652;11.908;2022-11-24T04:16:29;17.65;;;9.98;;
26612;SDS011;14248;57.652;11.908;2022-11-24T04:18:55;19.42;;;10.32;;
26612;SDS011;14248;57.652;11.908;2022-11-24T04:21:21;16.80;;;9.88;;
26612;SDS011;14248;57.652;11.908;2022-11-24T04:23:47;21.10;;;11.10;;
26612;SDS011;14248;57.652;11.908;2022-11-24T04:26:13;20.80;;;11.43;;
26612;SDS011;14248;57.652;11.908;2022-11-24T04:28:39;14.80;;;9.38;;
26612;SDS011;14248;57.652;11.908;2022-11-24T04:31:05;18.17;;;10.27;;
26612;SDS011;14248;57.652;11.908;2022-11-24T04:33:32;17.73;;;10.45;;
26612;SDS011;14248;57.652;11.908;2022-11-24T04:35:58;18.30;;;11.30;;
26612;SDS011;14248;57.652;11.908;2022-11-24T04:38:24;18.63;;;10.43;;
26612;SDS011;14248;57.652;11.908;2022-11-24T04:40:50;21.17;;;11.18;;
26612;SDS011;14248;57.652;11.908;2022-11-24T04:43:16;21.20;;;11.60;;
26612;SDS011;14248;57.652;11.908;2022-11-24T04:45:43;19.13;;;11.05;;
26612;SDS011;14248;57.652;11.908;2022-11-24T04:48:09;19.30;;;11.20;;
26612;SDS011;14248;57.652;11.908;2022-11-24T04:50:36;17.77;;;9.73;;
26612;SDS011;14248;57.652;11.908;2022-11-24T04:53:02;18.80;;;11.10;;
26612;SDS011;14248;57.652;11.908;2022-11-24T04:55:28;18.75;;;11.00;;
26612;SDS011;14248;57.652;11.908;2022-11-24T04:57:54;15.55;;;9.85;;
26612;SDS011;14248;57.652;11.908;2022-11-24T05:00:20;17.98;;;10.68;;
26612;SDS011;14248;57.652;11.908;2022-11-24T05:02:46;18.15;;;9.95;;
26612;SDS011;14248;57.652;11.908;2022-11-24T05:05:12;20.00;;;10.70;;
26612;SDS011;14248;57.652;11.908;2022-11-24T05:07:38;17.75;;;10.50;;
26612;SDS011;14248;57.652;11.908;2022-11-24T05:10:04;17.98;;;10.52;;
26612;SDS011;14248;57.652;11.908;2022-11-24T05:12:53;17.38;;;10.25;;
26612;SDS011;14248;57.652;11.908;2022-11-24T05:15:20;19.42;;;10.90;;
26612;SDS011;14248;57.652;11.908;2022-11-24T05:17:46;17.52;;;10.90;;
26612;SDS011;14248;57.652;11.908;2022-11-24T05:20:12;19.65;;;11.20;;
26612;SDS011;14248;57.652;11.908;2022-11-24T05:22:39;18.08;;;11.38;;
26612;SDS011;14248;57.652;11.908;2022-11-24T05:25:11;27.90;;;15.60;;
26612;SDS011;14248;57.652;11.908;2022-11-24T05:27:40;25.55;;;13.27;;
26612;SDS011;14248;57.652;11.908;2022-11-24T05:30:07;19.77;;;11.50;;
26612;SDS011;14248;57.652;11.908;2022-11-24T05:32:33;20.70;;;11.05;;
26612;SDS011;14248;57.652;11.908;2022-11-24T05:34:59;20.02;;;11.70;;
26612;SDS011;14248;57.652;11.908;2022-11-24T05:37:29;20.20;;;11.02;;
26612;SDS011;14248;57.652;11.908;2022-11-24T05:39:55;20.27;;;10.85;;
26612;SDS011;14248;57.652;11.908;2022-11-24T05:42:21;17.70;;;10.73;;
26612;SDS011;14248;57.652;11.908;2022-11-24T05:45:10;24.05;;;12.27;;
26612;SDS011;14248;57.652;11.908;2022-11-24T05:47:36;19.20;;;10.85;;
26612;SDS011;14248;57.652;11.908;2022-11-24T05:50:03;18.00;;;11.75;;
26612;SDS011;14248;57.652;11.908;2022-11-24T05:52:30;21.63;;;12.85;;
26612;SDS011;14248;57.652;11.908;2022-11-24T05:55:00;20.38;;;11.13;;
26612;SDS011;14248;57.652;11.908;2022-11-24T05:59:55;20.52;;;11.43;;
26612;SDS011;14248;57.652;11.908;2022-11-24T06:04:51;18.98;;;11.10;;
26612;SDS011;14248;57.652;11.908;2022-11-24T06:07:17;19.13;;;10.73;;
26612;SDS011;14248;57.652;11.908;2022-11-24T06:09:43;20.40;;;10.52;;
26612;SDS011;14248;57.652;11.908;2022-11-24T06:12:10;20.23;;;11.10;;
26612;SDS011;14248;57.652;11.908;2022-11-24T06:14:36;20.27;;;10.70;;
26612;SDS011;14248;57.652;11.908;2022-11-24T06:17:06;20.30;;;11.38;;
26612;SDS011;14248;57.652;11.908;2022-11-24T06:19:41;18.23;;;10.05;;
26612;SDS011;14248;57.652;11.908;2022-11-24T06:22:10;18.38;;;10.45;;
26612;SDS011;14248;57.652;11.908;2022-11-24T06:24:36;17.42;;;10.65;;
26612;SDS011;14248;57.652;11.908;2022-11-24T06:27:02;17.48;;;10.60;;
26612;SDS011;14248;57.652;11.908;2022-11-24T06:29:30;16.58;;;9.95;;
26612;SDS011;14248;57.652;11.908;2022-11-24T06:31:56;17.88;;;10.48;;
26612;SDS011;14248;57.652;11.908;2022-11-24T06:34:22;18.92;;;10.32;;
26612;SDS011;14248;57.652;11.908;2022-11-24T06:36:48;19.00;;;11.30;;
26612;SDS011;14248;57.652;11.908;2022-11-24T06:39:17;15.55;;;10.07;;
26612;SDS011;14248;57.652;11.908;2022-11-24T06:41:53;17.98;;;10.23;;
26612;SDS011;14248;57.652;11.908;2022-11-24T06:44:22;19.20;;;10.18;;
26612;SDS011;14248;57.652;11.908;2022-11-24T06:46:48;18.42;;;10.52;;
26612;SDS011;14248;57.652;11.908;2022-11-24T06:49:16;17.42;;;10.38;;
26612;SDS011;14248;57.652;11.908;2022-11-24T06:51:45;16.25;;;9.85;;
26612;SDS011;14248;57.652;11.908;2022-11-24T06:54:15;16.98;;;10.25;;
26612;SDS011;14248;57.652;11.908;2022-11-24T06:56:42;17.33;;;9.75;;
26612;SDS011;14248;57.652;11.908;2022-11-24T06:59:13;15.20;;;8.90;;
26612;SDS011;14248;57.652;11.908;2022-11-24T07:01:41;15.43;;;9.60;;
26612;SDS011;14248;57.652;11.908;2022-11-24T07:04:10;18.77;;;10.60;;
26612;SDS011;14248;57.652;11.908;2022-11-24T07:06:36;17.75;;;10.00;;
26612;SDS011;14248;57.652;11.908;2022-11-24T07:09:07;17.63;;;10.10;;
26612;SDS011;14248;57.652;11.908;2022-11-24T07:11:34;18.20;;;10.20;;
26612;SDS011;14248;57.652;11.908;2022-11-24T07:14:03;17.63;;;9.82;;
26612;SDS011;14248;57.652;11.908;2022-11-24T07:16:29;15.52;;;9.88;;
26612;SDS011;14248;57.652;11.908;2022-11-24T07:18:57;17.10;;;9.98;;
26612;SDS011;14248;57.652;11.908;2022-11-24T07:21:33;15.18;;;9.20;;
26612;SDS011;14248;57.652;11.908;2022-11-24T07:23:59;16.90;;;9.98;;
26612;SDS011;14248;57.652;11.908;2022-11-24T07:26:25;16.77;;;9.20;;
26612;SDS011;14248;57.652;11.908;2022-11-24T07:28:51;18.48;;;10.23;;
26612;SDS011;14248;57.652;11.908;2022-11-24T07:31:18;16.17;;;9.10;;
26612;SDS011;14248;57.652;11.908;2022-11-24T07:33:48;19.88;;;10.43;;
26612;SDS011;14248;57.652;11.908;2022-11-24T07:36:14;16.35;;;9.48;;
26612;SDS011;14248;57.652;11.908;2022-11-24T07:38:40;17.73;;;10.07;;
26612;SDS011;14248;57.652;11.908;2022-11-24T07:41:09;14.13;;;9.13;;
26612;SDS011;14248;57.652;11.908;2022-11-24T07:43:37;15.00;;;9.32;;
26612;SDS011;14248;57.652;11.908;2022-11-24T07:46:06;19.70;;;10.38;;
26612;SDS011;14248;57.652;11.908;2022-11-24T07:48:32;17.52;;;9.45;;
26612;SDS011;14248;57.652;11.908;2022-11-24T07:51:00;17.67;;;9.95;;
26612;SDS011;14248;57.652;11.908;2022-11-24T07:53:28;20.20;;;10.60;;
26612;SDS011;14248;57.652;11.908;2022-11-24T07:55:56;16.80;;;9.75;;
26612;SDS011;14248;57.652;11.908;2022-11-24T07:58:25;17.17;;;10.02;;
26612;SDS011;14248;57.652;11.908;2022-11-24T08:00:51;18.08;;;10.18;;
26612;SDS011;14248;57.652;11.908;2022-11-24T08:03:17;18.45;;;9.90;;
26612;SDS011;14248;57.652;11.908;2022-11-24T08:05:51;19.02;;;10.10;;
26612;SDS011;14248;57.652;11.908;2022-11-24T08:08:17;16.25;;;9.50;;
26612;SDS011;14248;57.652;11.908;2022-11-24T08:10:45;16.88;;;9.38;;
26612;SDS011;14248;57.652;11.908;2022-11-24T08:13:11;15.65;;;9.57;;
26612;SDS011;14248;57.652;11.908;2022-11-24T08:15:53;18.77;;;9.90;;
26612;SDS011;14248;57.652;11.908;2022-11-24T08:18:19;15.45;;;9.63;;
26612;SDS011;14248;57.652;11.908;2022-11-24T08:20:48;17.52;;;9.75;;
26612;SDS011;14248;57.652;11.908;2022-11-24T08:23:14;17.77;;;9.82;;
26612;SDS011;14248;57.652;11.908;2022-11-24T08:25:40;18.38;;;10.35;;
26612;SDS011;14248;57.652;11.908;2022-11-24T08:28:06;21.73;;;10.60;;
26612;SDS011;14248;57.652;11.908;2022-11-24T08:30:34;19.10;;;10.65;;
26612;SDS011;14248;57.652;11.908;2022-11-24T08:33:01;15.52;;;9.75;;
26612;SDS011;14248;57.652;11.908;2022-11-24T08:35:27;17.00;;;9.55;;
26612;SDS011;14248;57.652;11.908;2022-11-24T08:37:54;16.17;;;9.70;;
26612;SDS011;14248;57.652;11.908;2022-11-24T08:40:20;15.15;;;9.20;;
26612;SDS011;14248;57.652;11.908;2022-11-24T08:42:46;18.25;;;10.23;;
26612;SDS011;14248;57.652;11.908;2022-11-24T08:45:12;19.60;;;9.95;;
26612;SDS011;14248;57.652;11.908;2022-11-24T08:47:38;18.10;;;10.55;;
26612;SDS011;14248;57.652;11.908;2022-11-24T08:50:04;19.20;;;10.00;;
26612;SDS011;14248;57.652;11.908;2022-11-24T08:52:31;16.55;;;10.00;;
26612;SDS011;14248;57.652;11.908;2022-11-24T08:54:57;15.40;;;9.43;;
26612;SDS011;14248;57.652;11.908;2022-11-24T08:57:23;17.75;;;9.80;;
26612;SDS011;14248;57.652;11.908;2022-11-24T08:59:49;17.45;;;9.90;;
26612;SDS011;14248;57.652;11.908;2022-11-24T09:02:16;18.58;;;10.70;;
26612;SDS011;14248;57.652;11.908;2022-11-24T09:04:42;17.70;;;10.68;;
26612;SDS011;14248;57.652;11.908;2022-11-24T09:07:09;16.10;;;9.38;;
26612;SDS011;14248;57.652;11.908;2022-11-24T09:09:35;18.63;;;9.55;;
26612;SDS011;14248;57.652;11.908;2022-11-24T09:12:02;16.65;;;9.80;;
26612;SDS011;14248;57.652;11.908;2022-11-24T09:14:28;15.52;;;8.95;;
26612;SDS011;14248;57.652;11.908;2022-11-24T09:16:54;16.13;;;9.07;;
26612;SDS011;14248;57.652;11.908;2022-11-24T09:19:20;14.93;;;8.93;;
26612;SDS011;14248;57.652;11.908;2022-11-24T09:21:46;13.93;;;8.75;;
26612;SDS011;14248;57.652;11.908;2022-11-24T09:24:14;15.50;;;8.88;;
26612;SDS011;14248;57.652;11.908;2022-11-24T09:26:40;15.60;;;9.55;;
26612;SDS011;14248;57.652;11.908;2022-11-24T09:29:06;13.82;;;9.02;;
26612;SDS011;14248;57.652;11.908;2022-11-24T09:31:33;14.85;;;8.90;;
26612;SDS011;14248;57.652;11.908;2022-11-24T09:34:02;15.90;;;9.93;;
26612;SDS011;14248;57.652;11.908;2022-11-24T09:36:28;18.95;;;9.63;;
26612;SDS011;14248;57.652;11.908;2022-11-24T09:38:57;15.48;;;9.88;;
26612;SDS011;14248;57.652;11.908;2022-11-24T09:44:11;17.00;;;9.60;;
26612;SDS011;14248;57.652;11.908;2022-11-24T09:46:48;16.85;;;10.27;;
26612;SDS011;14248;57.652;11.908;2022-11-24T09:49:17;21.27;;;10.57;;
26612;SDS011;14248;57.652;11.908;2022-11-24T09:51:47;18.60;;;10.10;;
26612;SDS011;14248;57.652;11.908;2022-11-24T09:54:24;17.08;;;9.45;;
26612;SDS011;14248;57.652;11.908;2022-11-24T09:56:51;16.92;;;10.02;;
26612;SDS011;14248;57.652;11.908;2022-11-24T09:59:19;17.70;;;9.88;;
26612;SDS011;14248;57.652;11.908;2022-11-24T10:01:45;18.50;;;10.38;;
26612;SDS011;14248;57.652;11.908;2022-11-24T10:04:19;19.33;;;10.52;;
26612;SDS011;14248;57.652;11.908;2022-11-24T10:15:03;18.35;;;10.68;;
26612;SDS011;14248;57.652;11.908;2022-11-24T10:20:16;18.67;;;10.45;;
26612;SDS011;14248;57.652;11.908;2022-11-24T10:25:55;16.20;;;10.00;;
26612;SDS011;14248;57.652;11.908;2022-11-24T10:28:02;20.88;;;10.40;;
26612;SDS011;14248;57.652;11.908;2022-11-24T10:30:29;17.77;;;9.77;;
26612;SDS011;14248;57.652;11.908;2022-11-24T10:32:57;17.45;;;10.68;;
26612;SDS011;14248;57.652;11.908;2022-11-24T10:40:46;21.20;;;10.98;;
26612;SDS011;14248;57.652;11.908;2022-11-24T10:43:13;19.23;;;10.50;;
26612;SDS011;14248;57.652;11.908;2022-11-24T10:45:39;18.15;;;10.25;;
26612;SDS011;14248;57.652;11.908;2022-11-24T10:48:16;17.70;;;9.50;;
26612;SDS011;14248;57.652;11.908;2022-11-24T10:50:43;16.27;;;9.02;;
26612;SDS011;14248;57.652;11.908;2022-11-24T10:58:27;17.55;;;9.48;;
26612;SDS011;14248;57.652;11.908;2022-11-24T11:00:54;18.15;;;10.10;;
26612;SDS011;14248;57.652;11.908;2022-11-24T11:03:22;16.50;;;9.98;;
26612;SDS011;14248;57.652;11.908;2022-11-24T11:05:52;16.35;;;8.85;;
26612;SDS011;14248;57.652;11.908;2022-11-24T11:08:23;16.05;;;9.77;;
26612;SDS011;14248;57.652;11.908;2022-11-24T11:11:34;15.27;;;9.18;;
26612;SDS011;14248;57.652;11.908;2022-11-24T11:13:35;17.25;;;9.10;;
26612;SDS011;14248;57.652;11.908;2022-11-24T11:16:01;16.75;;;9.27;;
26612;SDS011;14248;57.652;11.908;2022-11-24T11:18:39;18.33;;;9.13;;
26612;SDS011;14248;57.652;11.908;2022-11-24T11:21:21;15.80;;;8.88;;
26612;SDS011;14248;57.652;11.908;2022-11-24T11:23:50;20.02;;;10.10;;
26612;SDS011;14248;57.652;11.908;2022-11-24T11:26:17;15.73;;;9.57;;
26612;SDS011;14248;57.652;11.908;2022-11-24T11:31:26;14.63;;;9.50;;
26612;SDS011;14248;57.652;11.908;2022-11-24T11:33:54;18.15;;;9.50;;
26612;SDS011;14248;57.652;11.908;2022-11-24T11:36:20;17.23;;;9.35;;
26612;SDS011;14248;57.652;11.908;2022-11-24T11:38:46;17.40;;;9.68;;
26612;SDS011;14248;57.652;11.908;2022-11-24T11:41:16;16.63;;;8.88;;
26612;SDS011;14248;57.652;11.908;2022-11-24T11:43:43;15.85;;;8.63;;
26612;SDS011;14248;57.652;11.908;2022-11-24T11:46:10;16.27;;;9.00;;
26612;SDS011;14248;57.652;11.908;2022-11-24T11:48:37;15.98;;;8.80;;
26612;SDS011;14248;57.652;11.908;2022-11-24T11:54:10;15.48;;;9.50;;
26612;SDS011;14248;57.652;11.908;2022-11-24T11:56:44;14.63;;;8.55;;
26612;SDS011;14248;57.652;11.908;2022-11-24T12:06:57;16.42;;;9.38;;
26612;SDS011;14248;57.652;11.908;2022-11-24T12:14:55;16.17;;;9.77;;
26612;SDS011;14248;57.652;11.908;2022-11-24T12:17:12;17.27;;;9.25;;
26612;SDS011;14248;57.652;11.908;2022-11-24T12:19:46;17.02;;;9.35;;
26612;SDS011;14248;57.652;11.908;2022-11-24T12:30:17;16.70;;;9.98;;
26612;SDS011;14248;57.652;11.908;2022-11-24T12:35:20;18.10;;;10.00;;
26612;SDS011;14248;57.652;11.908;2022-11-24T12:40:53;16.67;;;10.05;;
26612;SDS011;14248;57.652;11.908;2022-11-24T12:43:29;18.00;;;10.05;;
26612;SDS011;14248;57.652;11.908;2022-11-24T12:46:07;18.20;;;10.05;;
26612;SDS011;14248;57.652;11.908;2022-11-24T12:51:06;16.27;;;9.13;;
26612;SDS011;14248;57.652;11.908;2022-11-24T12:53:36;16.85;;;9.95;;
26612;SDS011;14248;57.652;11.908;2022-11-24T12:56:08;18.65;;;9.82;;
26612;SDS011;14248;57.652;11.908;2022-11-24T13:06:15;16.95;;;9.57;;
26612;SDS011;14248;57.652;11.908;2022-11-24T13:08:42;15.57;;;9.60;;
26612;SDS011;14248;57.652;11.908;2022-11-24T13:11:33;16.90;;;9.75;;
26612;SDS011;14248;57.652;11.908;2022-11-24T13:13:59;17.77;;;9.45;;
26612;SDS011;14248;57.652;11.908;2022-11-24T13:16:25;15.25;;;9.35;;
26612;SDS011;14248;57.652;11.908;2022-11-24T13:19:06;16.45;;;9.18;;
26612;SDS011;14248;57.652;11.908;2022-11-24T13:24:17;17.60;;;9.90;;
26612;SDS011;14248;57.652;11.908;2022-11-24T13:26:49;15.77;;;9.13;;
26612;SDS011;14248;57.652;11.908;2022-11-24T13:29:29;14.88;;;8.50;;
26612;SDS011;14248;57.652;11.908;2022-11-24T13:42:19;13.18;;;8.60;;
26612;SDS011;14248;57.652;11.908;2022-11-24T13:45:08;13.98;;;8.55;;
26612;SDS011;14248;57.652;11.908;2022-11-24T13:50:12;14.15;;;8.50;;
26612;SDS011;14248;57.652;11.908;2022-11-24T13:57:37;15.52;;;9.07;;
26612;SDS011;14248;57.652;11.908;2022-11-24T14:00:03;17.02;;;8.98;;
26612;SDS011;14248;57.652;11.908;2022-11-24T14:02:42;14.20;;;8.38;;
26612;SDS011;14248;57.652;11.908;2022-11-24T14:05:12;15.55;;;8.95;;
26612;SDS011;14248;57.652;11.908;2022-11-24T14:07:39;14.85;;;8.45;;
26612;SDS011;14248;57.652;11.908;2022-11-24T14:10:12;14.20;;;8.27;;
26612;SDS011;14248;57.652;11.908;2022-11-24T14:12:38;16.25;;;9.68;;
26612;SDS011;14248;57.652;11.908;2022-11-24T14:15:19;16.42;;;9.43;;
26612;SDS011;14248;57.652;11.908;2022-11-24T14:17:46;16.38;;;8.43;;
26612;SDS011;14248;57.652;11.908;2022-11-24T14:20:30;14.02;;;8.77;;
26612;SDS011;14248;57.652;11.908;2022-11-24T14:22:56;16.33;;;9.30;;
26612;SDS011;14248;57.652;11.908;2022-11-24T14:25:28;14.68;;;8.50;;
26612;SDS011;14248;57.652;11.908;2022-11-24T14:27:54;17.42;;;9.55;;
26612;SDS011;14248;57.652;11.908;2022-11-24T14:30:21;14.60;;;8.43;;
26612;SDS011;14248;57.652;11.908;2022-11-24T14:32:55;15.80;;;9.15;;
26612;SDS011;14248;57.652;11.908;2022-11-24T14:35:34;16.90;;;9.15;;
26612;SDS011;14248;57.652;11.908;2022-11-24T14:38:01;15.20;;;8.23;;
26612;SDS011;14248;57.652;11.908;2022-11-24T14:40:40;15.63;;;9.32;;
26612;SDS011;14248;57.652;11.908;2022-11-24T14:43:40;16.80;;;10.23;;
26612;SDS011;14248;57.652;11.908;2022-11-24T14:48:26;15.48;;;9.43;;
26612;SDS011;14248;57.652;11.908;2022-11-24T14:50:52;14.40;;;9.18;;
26612;SDS011;14248;57.652;11.908;2022-11-24T14:53:19;16.52;;;9.02;;
26612;SDS011;14248;57.652;11.908;2022-11-24T14:55:48;21.75;;;11.13;;
26612;SDS011;14248;57.652;11.908;2022-11-24T14:58:30;17.60;;;9.88;;
26612;SDS011;14248;57.652;11.908;2022-11-24T15:01:59;16.23;;;9.45;;
26612;SDS011;14248;57.652;11.908;2022-11-24T15:04:10;15.02;;;9.43;;
26612;SDS011;14248;57.652;11.908;2022-11-24T15:06:36;17.95;;;9.45;;
26612;SDS011;14248;57.652;11.908;2022-11-24T15:09:03;16.90;;;10.35;;
26612;SDS011;14248;57.652;11.908;2022-11-24T15:11:29;16.85;;;9.93;;
26612;SDS011;14248;57.652;11.908;2022-11-24T15:13:55;17.27;;;9.98;;
26612;SDS011;14248;57.652;11.908;2022-11-24T15:16:22;14.32;;;9.50;;
26612;SDS011;14248;57.652;11.908;2022-11-24T15:18:59;17.08;;;9.75;;
26612;SDS011;14248;57.652;11.908;2022-11-24T15:21:28;14.85;;;9.25;;
26612;SDS011;14248;57.652;11.908;2022-11-24T15:24:14;18.80;;;10.85;;
26612;SDS011;14248;57.652;11.908;2022-11-24T15:26:44;14.27;;;8.95;;
26612;SDS011;14248;57.652;11.908;2022-11-24T15:29:11;17.30;;;9.90;;
26612;SDS011;14248;57.652;11.908;2022-11-24T15:31:40;16.25;;;9.75;;
26612;SDS011;14248;57.652;11.908;2022-11-24T15:34:08;18.13;;;9.60;;
26612;SDS011;14248;57.652;11.908;2022-11-24T15:36:36;15.50;;;8.65;;
26612;SDS011;14248;57.652;11.908;2022-11-24T15:39:02;19.58;;;10.30;;
26612;SDS011;14248;57.652;11.908;2022-11-24T15:41:29;15.55;;;9.88;;
26612;SDS011;14248;57.652;11.908;2022-11-24T15:43:55;15.77;;;9.88;;
26612;SDS011;14248;57.652;11.908;2022-11-24T15:46:28;15.98;;;9.80;;
26612;SDS011;14248;57.652;11.908;2022-11-24T15:48:54;16.83;;;9.25;;
26612;SDS011;14248;57.652;11.908;2022-11-24T15:51:22;17.25;;;10.10;;
26612;SDS011;14248;57.652;11.908;2022-11-24T15:53:50;18.08;;;10.10;;
26612;SDS011;14248;57.652;11.908;2022-11-24T15:56:24;16.73;;;10.10;;
26612;SDS011;14248;57.652;11.908;2022-11-24T15:58:51;17.08;;;10.10;;
26612;SDS011;14248;57.652;11.908;2022-11-24T16:01:18;15.82;;;9.95;;
26612;SDS011;14248;57.652;11.908;2022-11-24T16:03:45;15.90;;;8.60;;
26612;SDS011;14248;57.652;11.908;2022-11-24T16:06:15;14.95;;;9.10;;
26612;SDS011;14248;57.652;11.908;2022-11-24T16:08:42;16.52;;;9.00;;
26612;SDS011;14248;57.652;11.908;2022-11-24T16:11:09;15.65;;;9.18;;
26612;SDS011;14248;57.652;11.908;2022-11-24T16:13:35;15.18;;;9.13;;